^^
Your Local Weather - Clay, NY Station Historical Data
Daily Summary for December 17, 2017 Units:  English    Metric   Both
« Previous Day
Next Day »
Daily Weekly Monthly Yearly Custom
  High: Low: Average:
Temperature: 22.6 °F 2.5 °F 14.5 °F
Dew Point: 17.2 °F -0.7 °F 10 °F
Humidity: 88% 70% 82%
Wind Speed: 3.0mph 0.0mph 0.4mph
Wind Gust: 5.0mph - -
Wind- - South
Pressure: 30.33 in 30.11 in -
Precipitation: 0.07 in    
Historical Graphs
 
 
Tabular Data for December 17, 2017
Time Temperature Dew Point Pressure Wind Wind Speed Wind Gust Humidity Rainfall Rate (Hourly) solar
00:04 6.9 °F 3.8 °F 30.21 in Calm     87% 0.00 in 0 W/m2
00:10 6.9 °F 3.8 °F 30.21 in Calm     87% 0.00 in 0 W/m2
00:16 6.7 °F 3.7 °F 30.20 in Calm     87% 0.00 in 0 W/m2
00:22 6.6 °F 3.6 °F 30.21 in Calm     87% 0.00 in 0 W/m2
00:28 6.5 °F 3.5 °F 30.21 in Calm     87% 0.00 in 0 W/m2
00:30 6.4 °F 3.4 °F 30.21 in Calm     87% 0.00 in 0 W/m2
00:36 6.0 °F 3.0 °F 30.21 in Calm   1.0 mph 87% 0.00 in 0 W/m2
00:38 5.9 °F 2.9 °F 30.21 in Calm   1.0 mph 87% 0.00 in 0 W/m2
00:44 5.5 °F 2.5 °F 30.21 in Calm     87% 0.00 in 0 W/m2
00:50 5.2 °F 2.2 °F 30.21 in Calm     87% 0.00 in 0 W/m2
01:02 4.6 °F 1.3 °F 30.21 in Calm     86% 0.00 in 0 W/m2
01:08 4.4 °F 1.1 °F 30.21 in Calm     86% 0.00 in 0 W/m2
01:12 4.4 °F 1.1 °F 30.21 in Calm     86% 0.00 in 0 W/m2
01:18 4.4 °F 1.1 °F 30.21 in Calm     86% 0.00 in 0 W/m2
01:24 4.3 °F 1.0 °F 30.21 in Calm     86% 0.00 in 0 W/m2
01:30 4.2 °F 0.9 °F 30.21 in Calm     86% 0.00 in 0 W/m2
01:36 4.2 °F 0.9 °F 30.21 in Calm     86% 0.00 in 0 W/m2
01:42 4.0 °F 0.7 °F 30.21 in Calm     86% 0.00 in 0 W/m2
01:48 3.9 °F 0.6 °F 30.22 in Calm     86% 0.00 in 0 W/m2
01:54 3.9 °F 0.6 °F 30.22 in Calm     86% 0.00 in 0 W/m2
02:00 3.9 °F 0.6 °F 30.22 in Calm     86% 0.00 in 0 W/m2
02:06 3.7 °F 0.4 °F 30.22 in Calm     86% 0.00 in 0 W/m2
02:10 3.6 °F 0.4 °F 30.23 in Calm     86% 0.00 in 0 W/m2
02:16 3.8 °F 0.5 °F 30.24 in Calm     86% 0.00 in 0 W/m2
02:22 3.8 °F 0.5 °F 30.24 in Calm     86% 0.00 in 0 W/m2
02:28 3.7 °F 0.4 °F 30.24 in Calm     86% 0.00 in 0 W/m2
02:32 3.7 °F 0.4 °F 30.24 in Calm     86% 0.00 in 0 W/m2
02:38 3.8 °F 0.5 °F 30.24 in Calm     86% 0.00 in 0 W/m2
02:44 3.6 °F 0.4 °F 30.24 in Calm     86% 0.00 in 0 W/m2
02:50 3.5 °F 0.3 °F 30.24 in Calm     86% 0.00 in 0 W/m2
02:56 3.4 °F 0.2 °F 30.24 in Calm     86% 0.00 in 0 W/m2
03:00 3.3 °F 0.1 °F 30.25 in Calm     86% 0.00 in 0 W/m2
03:06 3.1 °F -0.1 °F 30.26 in Calm     86% 0.00 in 0 W/m2
03:10 3.0 °F -0.2 °F 30.26 in Calm     86% 0.00 in 0 W/m2
03:16 2.9 °F -0.3 °F 30.26 in Calm     86% 0.00 in 0 W/m2
03:22 2.9 °F -0.3 °F 30.26 in Calm     86% 0.00 in 0 W/m2
03:34 2.6 °F -0.6 °F 30.27 in Calm     86% 0.00 in 0 W/m2
03:40 2.5 °F -0.7 °F 30.27 in Calm     86% 0.00 in 0 W/m2
03:46 2.5 °F -0.7 °F 30.27 in Calm     86% 0.00 in 0 W/m2
03:52 2.5 °F -0.7 °F 30.27 in Calm     86% 0.00 in 0 W/m2
03:58 3.0 °F -0.2 °F 30.28 in Calm     86% 0.00 in 0 W/m2
04:04 3.5 °F 0.3 °F 30.28 in Calm     86% 0.00 in 0 W/m2
04:16 4.5 °F 1.5 °F 30.29 in Calm     87% 0.00 in 0 W/m2
04:22 4.9 °F 1.9 °F 30.29 in Calm     87% 0.00 in 0 W/m2
04:28 5.6 °F 2.6 °F 30.28 in Calm     87% 0.00 in 0 W/m2
04:34 5.8 °F 2.8 °F 30.28 in Calm     87% 0.00 in 0 W/m2
04:40 6.2 °F 3.2 °F 30.27 in Calm     87% 0.00 in 0 W/m2
04:46 6.4 °F 3.4 °F 30.27 in Calm     87% 0.00 in 0 W/m2
04:48 6.4 °F 3.4 °F 30.27 in Calm     87% 0.00 in 0 W/m2
04:54 6.6 °F 3.6 °F 30.27 in Calm     87% 0.00 in 0 W/m2
05:00 6.7 °F 3.7 °F 30.27 in Calm     87% 0.00 in 0 W/m2
05:06 6.8 °F 3.8 °F 30.27 in Calm     87% 0.00 in 0 W/m2
05:10 6.8 °F 3.8 °F 30.27 in Calm     87% 0.00 in 0 W/m2
05:16 6.9 °F 3.8 °F 30.26 in Calm     87% 0.00 in 0 W/m2
05:22 7.0 °F 3.9 °F 30.26 in Calm     87% 0.00 in 0 W/m2
05:28 7.0 °F 3.9 °F 30.26 in Calm     87% 0.00 in 0 W/m2
05:34 7.1 °F 4.0 °F 30.25 in Calm     87% 0.00 in 0 W/m2
05:40 7.2 °F 4.1 °F 30.25 in Calm     87% 0.00 in 0 W/m2
05:46 7.2 °F 4.1 °F 30.26 in Calm     87% 0.00 in 0 W/m2
05:52 7.1 °F 4.0 °F 30.26 in Calm     87% 0.00 in 0 W/m2
05:58 7.2 °F 4.1 °F 30.27 in Calm     87% 0.00 in 0 W/m2
06:04 7.3 °F 4.2 °F 30.27 in Calm     87% 0.00 in 0 W/m2
06:10 7.4 °F 4.3 °F 30.27 in Calm     87% 0.00 in 0 W/m2
06:16 7.4 °F 4.3 °F 30.27 in Calm     87% 0.00 in 0 W/m2
06:22 7.3 °F 4.2 °F 30.27 in Calm     87% 0.00 in 0 W/m2
06:24 7.3 °F 4.2 °F 30.28 in Calm     87% 0.00 in 0 W/m2
06:30 7.2 °F 4.1 °F 30.28 in Calm     87% 0.00 in 0 W/m2
06:34 7.2 °F 4.1 °F 30.28 in Calm     87% 0.00 in 0 W/m2
06:40 7.2 °F 4.1 °F 30.28 in Calm     87% 0.00 in 0 W/m2
06:46 7.1 °F 4.0 °F 30.28 in Calm     87% 0.00 in 0 W/m2
06:48 7.1 °F 4.0 °F 30.29 in Calm     87% 0.00 in 0 W/m2
06:54 7.1 °F 4.0 °F 30.29 in Calm     87% 0.00 in 0 W/m2
07:00 7.2 °F 4.1 °F 30.29 in Calm     87% 0.00 in 0 W/m2
07:06 7.1 °F 3.8 °F 30.29 in Calm     86% 0.00 in 0 W/m2
07:08 7.1 °F 3.8 °F 30.29 in Calm     86% 0.00 in 0 W/m2
07:14 7.1 °F 3.8 °F 30.29 in Calm     86% 0.00 in 0 W/m2
07:20 7.1 °F 3.8 °F 30.29 in Calm     86% 0.00 in 0 W/m2
07:26 7.1 °F 4.0 °F 30.30 in Calm     87% 0.00 in 0 W/m2
07:32 7.3 °F 4.2 °F 30.30 in Calm     87% 0.00 in 0 W/m2
07:38 7.3 °F 4.2 °F 30.29 in Calm     87% 0.00 in 5 W/m2
07:44 7.4 °F 4.3 °F 30.29 in Calm     87% 0.00 in 7 W/m2
07:50 7.6 °F 4.5 °F 30.29 in Calm     87% 0.00 in 7 W/m2
07:56 7.7 °F 4.6 °F 30.30 in Calm     87% 0.00 in 11 W/m2
08:02 7.9 °F 4.8 °F 30.30 in Calm     87% 0.00 in 12 W/m2
08:08 8.1 °F 5.0 °F 30.31 in Calm     87% 0.00 in 16 W/m2
08:14 8.4 °F 5.3 °F 30.31 in Calm     87% 0.00 in 19 W/m2
08:20 8.5 °F 5.4 °F 30.31 in Calm     87% 0.00 in 21 W/m2
08:26 8.6 °F 5.5 °F 30.31 in Calm     87% 0.00 in 23 W/m2
08:32 8.8 °F 5.7 °F 30.31 in Calm     87% 0.00 in 30 W/m2
08:38 9.1 °F 6.0 °F 30.31 in Calm     87% 0.00 in 35 W/m2
08:44 9.5 °F 6.4 °F 30.31 in Calm     87% 0.00 in 33 W/m2
08:50 9.8 °F 6.7 °F 30.31 in Calm     87% 0.00 in 35 W/m2
08:56 10.2 °F 7.1 °F 30.31 in Calm     87% 0.00 in 37 W/m2
09:02 10.6 °F 7.5 °F 30.31 in Calm     87% 0.00 in 35 W/m2
09:14 11.1 °F 8.0 °F 30.32 in Calm   2.0 mph 87% 0.00 in 53 W/m2
09:20 11.3 °F 8.2 °F 30.32 in Calm     87% 0.00 in 53 W/m2
09:32 12.1 °F 9.2 °F 30.32 in Calm     88% 0.00 in 58 W/m2
09:38 12.7 °F 9.8 °F 30.32 in Calm     88% 0.00 in 63 W/m2
09:44 12.9 °F 10.0 °F 30.32 in Calm   1.0 mph 88% 0.00 in 49 W/m2
09:50 13.2 °F 10.3 °F 30.32 in Calm     88% 0.00 in 49 W/m2
09:56 13.6 °F 10.7 °F 30.32 in Calm     88% 0.00 in 74 W/m2
10:02 14.0 °F 11.1 °F 30.32 in WSW 1.0 mph 1.0 mph 88% 0.00 in 77 W/m2
10:08 15.1 °F 12.2 °F 30.33 in WSW 1.0 mph 1.0 mph 88% 0.00 in 84 W/m2
10:14 15.6 °F 12.7 °F 30.33 in WSW 1.0 mph 2.0 mph 88% 0.00 in 90 W/m2
10:20 15.9 °F 12.5 °F 30.33 in WSW 1.0 mph 1.0 mph 86% 0.00 in 95 W/m2
10:24 16.6 °F 13.1 °F 30.33 in WSW 1.0 mph 1.0 mph 86% 0.00 in 95 W/m2
10:30 16.8 °F 12.8 °F 30.33 in WSW 1.0 mph 1.0 mph 84% 0.00 in 105 W/m2
10:36 17.2 °F 13.2 °F 30.33 in Calm   1.0 mph 84% 0.00 in 109 W/m2
10:42 18.2 °F 13.9 °F 30.33 in Calm     83% 0.00 in 105 W/m2
10:48 20.0 °F 15.1 °F 30.33 in Calm     81% 0.00 in 116 W/m2
10:54 19.2 °F 13.5 °F 30.33 in Calm   1.0 mph 78% 0.00 in 128 W/m2
11:00 18.2 °F 13.1 °F 30.33 in Calm     80% 0.00 in 127 W/m2
11:06 18.9 °F 14.0 °F 30.32 in Calm   1.0 mph 81% 0.00 in 135 W/m2
11:12 20.7 °F 15.2 °F 30.32 in WNW 1.0 mph 1.0 mph 79% 0.00 in 155 W/m2
11:18 20.5 °F 13.8 °F 30.32 in WNW 1.0 mph 1.0 mph 75% 0.00 in 165 W/m2
11:24 19.5 °F 13.5 °F 30.32 in Calm   1.0 mph 77% 0.00 in 174 W/m2
11:30 20.4 °F 14.0 °F 30.31 in Calm     76% 0.00 in 171 W/m2
11:38 20.8 °F 13.5 °F 30.31 in Calm   2.0 mph 73% 0.00 in 200 W/m2
11:40 20.8 °F 13.8 °F 30.31 in Calm     74% 0.00 in 206 W/m2
11:46 20.9 °F 13.3 °F 30.31 in Calm   3.0 mph 72% 0.00 in 223 W/m2
11:52 20.6 °F 13.6 °F 30.31 in WNW 1.0 mph 1.0 mph 74% 0.00 in 236 W/m2
11:58 21.6 °F 14.0 °F 30.30 in WNW 1.0 mph 1.0 mph 72% 0.00 in 248 W/m2
12:04 22.6 °F 14.6 °F 30.29 in Calm     71% 0.04 in 276 W/m2
12:08 21.9 °F 13.6 °F 30.29 in Calm     70% 0.04 in 311 W/m2
12:14 22.6 °F 14.3 °F 30.29 in WNW 1.0 mph 2.0 mph 70% 0.06 in 343 W/m2
12:20 21.4 °F 13.5 °F 30.28 in NNE 1.0 mph 1.0 mph 71% 0.06 in 325 W/m2
12:22 21.2 °F 13.6 °F 30.28 in NNE 1.0 mph 2.0 mph 72% 0.06 in 290 W/m2
12:28 21.9 °F 14.3 °F 30.28 in NNE 1.0 mph 2.0 mph 72% 0.04 in 251 W/m2
12:34 21.4 °F 13.8 °F 30.27 in Calm     72% 0.04 in 260 W/m2
12:40 21.8 °F 14.2 °F 30.27 in NNE 1.0 mph 1.0 mph 72% 0.04 in 244 W/m2
12:46 21.8 °F 14.2 °F 30.26 in NNE 1.0 mph 1.0 mph 72% 0.04 in 230 W/m2
12:52 21.4 °F 14.1 °F 30.26 in North 1.0 mph 2.0 mph 73% 0.04 in 216 W/m2
12:58 21.0 °F 13.7 °F 30.26 in NE 2.0 mph 2.0 mph 73% 0.04 in 237 W/m2
13:04 21.1 °F 14.1 °F 30.26 in NNE 2.0 mph 3.0 mph 74% 0.00 in 200 W/m2
13:16 21.1 °F 14.1 °F 30.26 in North 2.0 mph 3.0 mph 74% 0.00 in 172 W/m2
13:22 21.7 °F 14.7 °F 30.26 in North 1.0 mph 1.0 mph 74% 0.00 in 195 W/m2
13:28 21.1 °F 14.1 °F 30.26 in North 1.0 mph 3.0 mph 74% 0.00 in 202 W/m2
13:34 21.0 °F 14.3 °F 30.25 in North 2.0 mph 3.0 mph 75% 0.00 in 163 W/m2
13:40 20.9 °F 14.2 °F 30.26 in NE 2.0 mph 2.0 mph 75% 0.00 in 149 W/m2
13:46 20.9 °F 14.2 °F 30.26 in NE 2.0 mph 2.0 mph 75% 0.00 in 176 W/m2
13:52 21.0 °F 14.3 °F 30.25 in NE 2.0 mph 2.0 mph 75% 0.00 in 169 W/m2
14:04 21.0 °F 14.6 °F 30.26 in NE 1.0 mph 2.0 mph 76% 0.00 in 135 W/m2
14:06 21.1 °F 14.7 °F 30.26 in NE 1.0 mph 2.0 mph 76% 0.00 in 127 W/m2
14:12 21.2 °F 14.5 °F 30.26 in Calm     75% 0.00 in 118 W/m2
14:18 21.0 °F 14.6 °F 30.26 in NNW 1.0 mph 2.0 mph 76% 0.00 in 113 W/m2
14:24 21.2 °F 14.8 °F 30.26 in NNW 1.0 mph 1.0 mph 76% 0.00 in 98 W/m2
14:26 21.3 °F 14.6 °F 30.26 in NNW 1.0 mph 2.0 mph 75% 0.00 in 100 W/m2
14:32 21.3 °F 14.6 °F 30.26 in Calm     75% 0.00 in 100 W/m2
14:40 21.3 °F 14.6 °F 30.26 in Calm     75% 0.00 in 90 W/m2
14:46 21.2 °F 14.5 °F 30.25 in NNW 1.0 mph 2.0 mph 75% 0.00 in 104 W/m2
14:52 21.1 °F 14.4 °F 30.25 in NNW 1.0 mph 1.0 mph 75% 0.00 in 74 W/m2
14:58 21.1 °F 14.4 °F 30.25 in NNW 1.0 mph 4.0 mph 75% 0.00 in 76 W/m2
15:04 21.1 °F 14.4 °F 30.25 in NNW 1.0 mph 2.0 mph 75% 0.00 in 76 W/m2
15:10 21.1 °F 14.7 °F 30.25 in NNW 1.0 mph 1.0 mph 76% 0.00 in 76 W/m2
15:16 21.1 °F 14.4 °F 30.25 in NNE 1.0 mph 2.0 mph 75% 0.00 in 65 W/m2
15:22 21.0 °F 14.3 °F 30.25 in NNE 1.0 mph 2.0 mph 75% 0.00 in 49 W/m2
15:28 20.9 °F 14.5 °F 30.25 in North 2.0 mph 4.0 mph 76% 0.00 in 40 W/m2
15:34 20.9 °F 14.5 °F 30.24 in North 2.0 mph 2.0 mph 76% 0.00 in 35 W/m2
15:40 20.8 °F 14.4 °F 30.24 in North 1.0 mph 2.0 mph 76% 0.00 in 30 W/m2
15:46 20.8 °F 14.7 °F 30.24 in North 1.0 mph 2.0 mph 77% 0.00 in 26 W/m2
15:52 20.8 °F 14.7 °F 30.23 in North 1.0 mph 1.0 mph 77% 0.00 in 21 W/m2
15:58 20.8 °F 14.7 °F 30.23 in North 1.0 mph 2.0 mph 77% 0.00 in 14 W/m2
16:04 20.8 °F 14.7 °F 30.23 in North 1.0 mph 1.0 mph 77% 0.00 in 11 W/m2
16:10 20.7 °F 14.6 °F 30.24 in North 1.0 mph 1.0 mph 77% 0.00 in 7 W/m2
16:16 20.6 °F 14.8 °F 30.24 in Calm   1.0 mph 78% 0.00 in 5 W/m2
16:22 20.6 °F 14.8 °F 30.24 in Calm     78% 0.00 in 0 W/m2
16:26 20.5 °F 14.7 °F 30.24 in Calm     78% 0.00 in 0 W/m2
16:32 20.5 °F 15.0 °F 30.23 in Calm   1.0 mph 79% 0.00 in 0 W/m2
16:38 20.5 °F 15.0 °F 30.23 in Calm   1.0 mph 79% 0.00 in 0 W/m2
16:42 20.5 °F 15.0 °F 30.24 in Calm     79% 0.00 in 0 W/m2
16:48 20.4 °F 14.9 °F 30.24 in Calm     79% 0.00 in 0 W/m2
16:54 20.4 °F 14.9 °F 30.24 in Calm     79% 0.00 in 0 W/m2
17:00 20.4 °F 14.9 °F 30.24 in Calm     79% 0.00 in 0 W/m2
17:06 20.3 °F 14.8 °F 30.24 in Calm     79% 0.00 in 0 W/m2
17:12 20.3 °F 15.1 °F 30.23 in Calm     80% 0.00 in 0 W/m2
17:18 20.2 °F 15.0 °F 30.23 in Calm     80% 0.00 in 0 W/m2
17:24 20.1 °F 14.9 °F 30.23 in Calm     80% 0.00 in 0 W/m2
17:30 20.1 °F 14.9 °F 30.23 in Calm     80% 0.00 in 0 W/m2
17:36 20.0 °F 15.1 °F 30.23 in Calm     81% 0.00 in 0 W/m2
17:42 20.0 °F 15.1 °F 30.23 in Calm     81% 0.00 in 0 W/m2
17:48 20.0 °F 15.1 °F 30.24 in Calm     81% 0.00 in 0 W/m2
17:54 20.0 °F 15.4 °F 30.24 in Calm     82% 0.00 in 0 W/m2
18:00 19.9 °F 15.3 °F 30.24 in Calm     82% 0.00 in 0 W/m2
18:06 19.8 °F 15.5 °F 30.24 in Calm     83% 0.00 in 0 W/m2
18:12 19.7 °F 15.4 °F 30.24 in Calm     83% 0.00 in 0 W/m2
18:18 19.6 °F 15.3 °F 30.25 in Calm     83% 0.00 in 0 W/m2
18:24 19.5 °F 15.2 °F 30.24 in Calm     83% 0.00 in 0 W/m2
18:30 19.5 °F 15.2 °F 30.23 in Calm     83% 0.00 in 0 W/m2
18:36 19.4 °F 15.1 °F 30.24 in Calm     83% 0.00 in 0 W/m2
18:42 19.3 °F 15.3 °F 30.23 in Calm     84% 0.00 in 0 W/m2
18:46 19.3 °F 15.3 °F 30.23 in Calm     84% 0.00 in 0 W/m2
18:52 19.3 °F 15.3 °F 30.23 in Calm     84% 0.00 in 0 W/m2
18:58 19.4 °F 15.4 °F 30.23 in Calm     84% 0.00 in 0 W/m2
19:04 19.3 °F 15.3 °F 30.22 in Calm     84% 0.00 in 0 W/m2
19:14 19.5 °F 15.5 °F 30.22 in Calm     84% 0.00 in 0 W/m2
19:22 19.6 °F 15.6 °F 30.22 in Calm   1.0 mph 84% 0.00 in 0 W/m2
19:28 19.7 °F 15.4 °F 30.22 in Calm   1.0 mph 83% 0.00 in 0 W/m2
19:34 19.8 °F 15.5 °F 30.21 in Calm   3.0 mph 83% 0.00 in 0 W/m2
19:40 19.9 °F 15.3 °F 30.21 in ENE 1.0 mph 1.0 mph 82% 0.00 in 0 W/m2
19:46 19.8 °F 14.9 °F 30.20 in Calm   1.0 mph 81% 0.00 in 0 W/m2
19:48 19.7 °F 14.8 °F 30.20 in Calm   1.0 mph 81% 0.00 in 0 W/m2
19:54 19.7 °F 14.8 °F 30.20 in Calm     81% 0.00 in 0 W/m2
20:00 19.8 °F 14.9 °F 30.21 in Calm   1.0 mph 81% 0.00 in 0 W/m2
20:06 19.9 °F 14.7 °F 30.21 in Calm   1.0 mph 80% 0.00 in 0 W/m2
20:12 19.8 °F 14.6 °F 30.21 in Calm     80% 0.00 in 0 W/m2
20:18 19.7 °F 14.5 °F 30.20 in Calm     80% 0.00 in 0 W/m2
20:24 19.6 °F 14.4 °F 30.20 in Calm     80% 0.00 in 0 W/m2
20:30 19.6 °F 14.4 °F 30.20 in Calm     80% 0.00 in 0 W/m2
20:36 19.6 °F 14.4 °F 30.20 in Calm     80% 0.00 in 0 W/m2
20:42 19.5 °F 14.3 °F 30.20 in Calm     80% 0.00 in 0 W/m2
20:48 19.5 °F 14.6 °F 30.20 in Calm     81% 0.00 in 0 W/m2
20:54 19.3 °F 14.4 °F 30.20 in Calm     81% 0.00 in 0 W/m2
21:00 19.2 °F 14.3 °F 30.20 in Calm     81% 0.00 in 0 W/m2
21:06 19.1 °F 14.5 °F 30.20 in Calm     82% 0.00 in 0 W/m2
21:08 19.1 °F 14.5 °F 30.20 in Calm     82% 0.00 in 0 W/m2
21:14 18.9 °F 14.6 °F 30.19 in Calm   2.0 mph 83% 0.00 in 0 W/m2
21:20 18.8 °F 14.5 °F 30.18 in Calm     83% 0.00 in 0 W/m2
21:26 19.1 °F 14.8 °F 30.18 in ENE 1.0 mph 3.0 mph 83% 0.00 in 0 W/m2
21:32 19.4 °F 14.8 °F 30.18 in Calm     82% 0.00 in 0 W/m2
21:38 19.5 °F 14.9 °F 30.17 in Calm     82% 0.00 in 0 W/m2
21:44 19.6 °F 15.0 °F 30.17 in Calm   2.0 mph 82% 0.00 in 0 W/m2
21:50 19.8 °F 14.9 °F 30.16 in Calm   1.0 mph 81% 0.00 in 0 W/m2
21:56 20.1 °F 15.2 °F 30.15 in ENE 1.0 mph 2.0 mph 81% 0.00 in 0 W/m2
22:02 20.3 °F 15.1 °F 30.15 in ENE 1.0 mph 1.0 mph 80% 0.00 in 0 W/m2
22:04 20.4 °F 15.2 °F 30.15 in ENE 1.0 mph 1.0 mph 80% 0.00 in 0 W/m2
22:10 20.6 °F 15.4 °F 30.15 in ENE 1.0 mph 3.0 mph 80% 0.00 in 0 W/m2
22:20 20.9 °F 15.4 °F 30.15 in ENE 1.0 mph 1.0 mph 79% 0.00 in 0 W/m2
22:26 21.0 °F 15.5 °F 30.14 in ENE 1.0 mph 1.0 mph 79% 0.00 in 0 W/m2
22:32 21.1 °F 15.6 °F 30.13 in ESE 1.0 mph 2.0 mph 79% 0.00 in 0 W/m2
22:38 21.2 °F 15.7 °F 30.12 in SE 2.0 mph 3.0 mph 79% 0.00 in 0 W/m2
22:44 21.1 °F 15.6 °F 30.12 in ENE 2.0 mph 4.0 mph 79% 0.00 in 0 W/m2
22:50 21.3 °F 15.8 °F 30.12 in East 2.0 mph 2.0 mph 79% 0.00 in 0 W/m2
22:56 21.3 °F 16.1 °F 30.12 in East 1.0 mph 2.0 mph 80% 0.00 in 0 W/m2
23:02 21.4 °F 16.2 °F 30.12 in East 1.0 mph 2.0 mph 80% 0.00 in 0 W/m2
23:08 21.5 °F 16.3 °F 30.12 in East 2.0 mph 2.0 mph 80% 0.00 in 0 W/m2
23:20 21.7 °F 16.5 °F 30.12 in ENE 2.0 mph 2.0 mph 80% 0.00 in 0 W/m2
23:26 21.7 °F 16.8 °F 30.12 in NE 2.0 mph 3.0 mph 81% 0.00 in 0 W/m2
23:32 21.8 °F 16.6 °F 30.11 in ENE 2.0 mph 5.0 mph 80% 0.00 in 0 W/m2
23:38 21.8 °F 16.9 °F 30.11 in ENE 3.0 mph 5.0 mph 81% 0.00 in 0 W/m2
23:40 21.8 °F 16.9 °F 30.11 in ENE 3.0 mph 3.0 mph 81% 0.00 in 0 W/m2
23:46 21.9 °F 17.0 °F 30.11 in East 3.0 mph 3.0 mph 81% 0.00 in 0 W/m2
23:52 21.9 °F 17.0 °F 30.11 in ENE 2.0 mph 2.0 mph 81% 0.00 in 0 W/m2
23:58 21.9 °F 17.2 °F 30.11 in East 2.0 mph 2.0 mph 82% 0.00 in 0 W/m2
Country Meadow, Clay, NY, USA
Compliments of Weather Underground - 2 mb